Princimar Pride — V7XL5 — position and weather

sailwx.info

Track history (hours):
 
Tides and Currents Weather Stations Pressure Air Temp Water Temp Dewpoint Dewpoint Depression Visibility Wind Speed Wind Dir Waves Ship Positions

Princimar Pride

Last reported at 2015-Mar-01 13:32 UTC. Time now 2015-Mar-05 04:12 UTC.
Position N 25°43' W 079°34'.

Length 274 m; draft 13.8 m.

Type: Ship. MMSI: 538004509.

Date/timePositionNaut miles runAvg speedWind from/ knotsBaromVisibWave heightAir tempDewpointWater temp
2015-Mar-01 13:32N 25°43' W 079°34'1010.4
2015-Mar-01 12:33N 25°53' W 079°33'1010.1
2015-Mar-01 11:33N 26°03' W 079°29'1111.1
2015-Mar-01 10:33N 26°10' W 079°20'  
2015-Feb-20 02:22N 38°37' W 032°07'1010.2
2015-Feb-20 01:25N 38°38' W 031°55'2010.3
2015-Feb-19 23:27N 38°40' W 031°29'1210.6
2015-Feb-19 22:21N 38°41' W 031°14'910.6
2015-Feb-19 21:33N 38°42' W 031°03'1110.6
2015-Feb-19 20:33N 38°42' W 030°49'1110.8
2015-Feb-19 19:33N 38°43' W 030°36'1111.0
2015-Feb-19 18:33N 38°48' W 030°23'1111.3
2015-Feb-19 17:33N 38°54' W 030°11'1111.2
2015-Feb-19 16:33N 38°60' W 029°59'1110.8
2015-Feb-19 15:33N 39°05' W 029°46'1111.3
2015-Feb-19 14:33N 39°10' W 029°33'1010.5
2015-Feb-19 13:33N 39°15' W 029°21'  
Track history (hours):
 
Tides and Currents Weather Stations Pressure Air Temp Water Temp Dewpoint Dewpoint Depression Visibility Wind Speed Wind Dir Waves Ship Positions

Princimar Pride

Last reported at 2015-Mar-01 13:32 UTC. Time now 2015-Mar-05 04:12 UTC.
Position N 25°43' W 079°34'.

Length 274 m; draft 13.8 m.

Type: Ship. MMSI: 538004509.

Date/timePositionNaut miles runAvg speedWind from/ knotsBaromVisibWave heightAir tempDewpointWater temp
2015-Mar-01 13:32N 25°43' W 079°34'1010.4
2015-Mar-01 12:33N 25°53' W 079°33'1010.1
2015-Mar-01 11:33N 26°03' W 079°29'1111.1
2015-Mar-01 10:33N 26°10' W 079°20'  
2015-Feb-20 02:22N 38°37' W 032°07'1010.2
2015-Feb-20 01:25N 38°38' W 031°55'2010.3
2015-Feb-19 23:27N 38°40' W 031°29'1210.6
2015-Feb-19 22:21N 38°41' W 031°14'910.6
2015-Feb-19 21:33N 38°42' W 031°03'1110.6
2015-Feb-19 20:33N 38°42' W 030°49'1110.8
2015-Feb-19 19:33N 38°43' W 030°36'1111.0
2015-Feb-19 18:33N 38°48' W 030°23'1111.3
2015-Feb-19 17:33N 38°54' W 030°11'1111.2
2015-Feb-19 16:33N 38°60' W 029°59'1110.8
2015-Feb-19 15:33N 39°05' W 029°46'1111.3
2015-Feb-19 14:33N 39°10' W 029°33'1010.5
2015-Feb-19 13:33N 39°15' W 029°21'  

Dump ship's entire track history